sensor_id;sensor_type;location;lat;lon;timestamp;temperature;humidity
11264;DHT22;5689;48.798;9.070;2023-03-23T00:01:30;14.40;80.80
11264;DHT22;5689;48.798;9.070;2023-03-23T00:04:03;14.50;80.90
11264;DHT22;5689;48.798;9.070;2023-03-23T00:06:30;14.50;81.00
11264;DHT22;5689;48.798;9.070;2023-03-23T00:08:58;14.60;81.00
11264;DHT22;5689;48.798;9.070;2023-03-23T00:11:29;14.60;81.00
11264;DHT22;5689;48.798;9.070;2023-03-23T00:13:58;14.50;81.10
11264;DHT22;5689;48.798;9.070;2023-03-23T00:16:31;14.50;81.40
11264;DHT22;5689;48.798;9.070;2023-03-23T00:19:00;14.40;82.20
11264;DHT22;5689;48.798;9.070;2023-03-23T00:21:30;14.40;81.60
11264;DHT22;5689;48.798;9.070;2023-03-23T00:24:01;14.40;82.00
11264;DHT22;5689;48.798;9.070;2023-03-23T00:26:29;14.40;82.10
11264;DHT22;5689;48.798;9.070;2023-03-23T00:28:59;14.40;82.40
11264;DHT22;5689;48.798;9.070;2023-03-23T00:31:27;14.40;82.60
11264;DHT22;5689;48.798;9.070;2023-03-23T00:33:59;14.40;82.70
11264;DHT22;5689;48.798;9.070;2023-03-23T00:36:30;14.40;82.80
11264;DHT22;5689;48.798;9.070;2023-03-23T00:38:57;14.40;82.80
11264;DHT22;5689;48.798;9.070;2023-03-23T00:41:25;14.40;82.80
11264;DHT22;5689;48.798;9.070;2023-03-23T00:43:54;14.40;83.00
11264;DHT22;5689;48.798;9.070;2023-03-23T00:46:22;14.40;83.00
11264;DHT22;5689;48.798;9.070;2023-03-23T00:48:50;14.50;83.30
11264;DHT22;5689;48.798;9.070;2023-03-23T00:51:19;14.50;82.90
11264;DHT22;5689;48.798;9.070;2023-03-23T00:53:46;14.40;83.00
11264;DHT22;5689;48.798;9.070;2023-03-23T00:56:14;14.40;82.80
11264;DHT22;5689;48.798;9.070;2023-03-23T00:58:41;14.40;83.00
11264;DHT22;5689;48.798;9.070;2023-03-23T01:01:08;14.50;83.00
11264;DHT22;5689;48.798;9.070;2023-03-23T01:03:36;14.40;82.90
11264;DHT22;5689;48.798;9.070;2023-03-23T01:06:08;14.30;82.90
11264;DHT22;5689;48.798;9.070;2023-03-23T01:08:39;14.40;82.90
11264;DHT22;5689;48.798;9.070;2023-03-23T01:11:12;14.40;82.80
11264;DHT22;5689;48.798;9.070;2023-03-23T01:13:40;14.40;82.90
11264;DHT22;5689;48.798;9.070;2023-03-23T01:16:07;14.40;82.80
11264;DHT22;5689;48.798;9.070;2023-03-23T01:18:35;14.30;82.50
11264;DHT22;5689;48.798;9.070;2023-03-23T01:21:04;14.30;82.70
11264;DHT22;5689;48.798;9.070;2023-03-23T01:23:32;14.30;82.70
11264;DHT22;5689;48.798;9.070;2023-03-23T01:26:04;14.30;82.50
11264;DHT22;5689;48.798;9.070;2023-03-23T01:28:33;14.30;82.50
11264;DHT22;5689;48.798;9.070;2023-03-23T01:31:01;14.30;82.60
11264;DHT22;5689;48.798;9.070;2023-03-23T01:33:29;14.40;82.70
11264;DHT22;5689;48.798;9.070;2023-03-23T01:35:56;14.40;82.50
11264;DHT22;5689;48.798;9.070;2023-03-23T01:38:23;14.30;82.50
11264;DHT22;5689;48.798;9.070;2023-03-23T01:40:50;14.40;82.60
11264;DHT22;5689;48.798;9.070;2023-03-23T01:43:18;14.30;82.80
11264;DHT22;5689;48.798;9.070;2023-03-23T01:45:45;14.30;82.80
11264;DHT22;5689;48.798;9.070;2023-03-23T01:48:17;14.30;82.50
11264;DHT22;5689;48.798;9.070;2023-03-23T01:50:52;14.40;82.50
11264;DHT22;5689;48.798;9.070;2023-03-23T01:53:22;14.30;82.50
11264;DHT22;5689;48.798;9.070;2023-03-23T01:55:50;14.30;82.70
11264;DHT22;5689;48.798;9.070;2023-03-23T01:58:24;14.20;82.50
11264;DHT22;5689;48.798;9.070;2023-03-23T02:00:54;14.30;82.30
11264;DHT22;5689;48.798;9.070;2023-03-23T02:03:22;14.30;82.50
11264;DHT22;5689;48.798;9.070;2023-03-23T02:05:50;14.20;82.30
11264;DHT22;5689;48.798;9.070;2023-03-23T02:08:27;14.10;82.20
11264;DHT22;5689;48.798;9.070;2023-03-23T02:10:55;14.10;82.30
11264;DHT22;5689;48.798;9.070;2023-03-23T02:13:24;14.20;82.30
11264;DHT22;5689;48.798;9.070;2023-03-23T02:16:00;14.10;82.30
11264;DHT22;5689;48.798;9.070;2023-03-23T02:18:41;14.00;82.30
11264;DHT22;5689;48.798;9.070;2023-03-23T02:24:56;14.00;83.10
11264;DHT22;5689;48.798;9.070;2023-03-23T02:27:43;14.10;83.50
11264;DHT22;5689;48.798;9.070;2023-03-23T02:30:31;13.90;83.90
11264;DHT22;5689;48.798;9.070;2023-03-23T02:33:29;14.00;84.10
11264;DHT22;5689;48.798;9.070;2023-03-23T02:36:02;14.00;84.30
11264;DHT22;5689;48.798;9.070;2023-03-23T02:38:34;13.90;84.30
11264;DHT22;5689;48.798;9.070;2023-03-23T02:41:02;13.90;84.50
11264;DHT22;5689;48.798;9.070;2023-03-23T02:43:33;13.90;85.40
11264;DHT22;5689;48.798;9.070;2023-03-23T02:46:05;13.90;85.00
11264;DHT22;5689;48.798;9.070;2023-03-23T02:48:35;13.90;85.00
11264;DHT22;5689;48.798;9.070;2023-03-23T02:51:04;13.80;85.20
11264;DHT22;5689;48.798;9.070;2023-03-23T02:53:34;13.80;85.30
11264;DHT22;5689;48.798;9.070;2023-03-23T02:56:02;13.70;85.50
11264;DHT22;5689;48.798;9.070;2023-03-23T02:58:31;13.70;85.70
11264;DHT22;5689;48.798;9.070;2023-03-23T03:00:58;13.80;85.60
11264;DHT22;5689;48.798;9.070;2023-03-23T03:03:28;13.80;85.50
11264;DHT22;5689;48.798;9.070;2023-03-23T03:06:06;13.90;85.20
11264;DHT22;5689;48.798;9.070;2023-03-23T03:08:41;14.00;85.30
11264;DHT22;5689;48.798;9.070;2023-03-23T03:11:13;14.00;85.20
11264;DHT22;5689;48.798;9.070;2023-03-23T03:13:46;14.00;85.60
11264;DHT22;5689;48.798;9.070;2023-03-23T03:16:23;14.10;84.80
11264;DHT22;5689;48.798;9.070;2023-03-23T03:18:56;14.10;85.00
11264;DHT22;5689;48.798;9.070;2023-03-23T03:21:27;14.10;84.90
11264;DHT22;5689;48.798;9.070;2023-03-23T03:23:58;14.10;84.90
11264;DHT22;5689;48.798;9.070;2023-03-23T03:26:29;14.20;84.30
11264;DHT22;5689;48.798;9.070;2023-03-23T03:29:08;14.20;84.30
11264;DHT22;5689;48.798;9.070;2023-03-23T03:31:42;14.20;84.30
11264;DHT22;5689;48.798;9.070;2023-03-23T03:34:12;14.20;84.10
11264;DHT22;5689;48.798;9.070;2023-03-23T03:36:48;14.20;84.20
11264;DHT22;5689;48.798;9.070;2023-03-23T03:39:16;14.10;84.30
11264;DHT22;5689;48.798;9.070;2023-03-23T03:41:45;14.10;85.00
11264;DHT22;5689;48.798;9.070;2023-03-23T03:44:12;14.20;84.30
11264;DHT22;5689;48.798;9.070;2023-03-23T03:46:40;14.20;84.30
11264;DHT22;5689;48.798;9.070;2023-03-23T03:49:09;14.20;84.40
11264;DHT22;5689;48.798;9.070;2023-03-23T03:51:38;14.20;84.60
11264;DHT22;5689;48.798;9.070;2023-03-23T03:54:09;14.20;84.50
11264;DHT22;5689;48.798;9.070;2023-03-23T03:56:36;14.20;84.90
11264;DHT22;5689;48.798;9.070;2023-03-23T03:59:31;14.20;85.00
11264;DHT22;5689;48.798;9.070;2023-03-23T04:02:17;14.20;85.00
11264;DHT22;5689;48.798;9.070;2023-03-23T04:04:47;14.20;84.70
11264;DHT22;5689;48.798;9.070;2023-03-23T04:07:14;14.20;85.00
11264;DHT22;5689;48.798;9.070;2023-03-23T04:09:44;14.20;85.00
11264;DHT22;5689;48.798;9.070;2023-03-23T04:12:13;14.20;85.10
11264;DHT22;5689;48.798;9.070;2023-03-23T04:15:10;14.20;85.20
11264;DHT22;5689;48.798;9.070;2023-03-23T04:17:37;14.10;85.50
11264;DHT22;5689;48.798;9.070;2023-03-23T04:20:07;14.20;85.70
11264;DHT22;5689;48.798;9.070;2023-03-23T04:22:40;14.20;85.30
11264;DHT22;5689;48.798;9.070;2023-03-23T04:25:12;14.10;85.70
11264;DHT22;5689;48.798;9.070;2023-03-23T04:27:41;14.10;85.80
11264;DHT22;5689;48.798;9.070;2023-03-23T04:30:13;14.10;85.80
11264;DHT22;5689;48.798;9.070;2023-03-23T04:32:45;14.10;85.60
11264;DHT22;5689;48.798;9.070;2023-03-23T04:35:19;14.10;86.10
11264;DHT22;5689;48.798;9.070;2023-03-23T04:37:53;14.10;85.80
11264;DHT22;5689;48.798;9.070;2023-03-23T04:40:22;14.10;85.70
11264;DHT22;5689;48.798;9.070;2023-03-23T04:43:01;14.10;85.90
11264;DHT22;5689;48.798;9.070;2023-03-23T04:45:52;14.10;85.80
11264;DHT22;5689;48.798;9.070;2023-03-23T04:48:22;14.20;85.60
11264;DHT22;5689;48.798;9.070;2023-03-23T04:51:01;14.20;85.70
11264;DHT22;5689;48.798;9.070;2023-03-23T04:53:29;14.30;85.50
11264;DHT22;5689;48.798;9.070;2023-03-23T04:55:57;14.30;85.50
11264;DHT22;5689;48.798;9.070;2023-03-23T04:58:28;14.30;85.40
11264;DHT22;5689;48.798;9.070;2023-03-23T05:01:26;14.40;85.20
11264;DHT22;5689;48.798;9.070;2023-03-23T05:04:05;14.30;85.30
11264;DHT22;5689;48.798;9.070;2023-03-23T05:06:33;14.40;84.80
11264;DHT22;5689;48.798;9.070;2023-03-23T05:09:05;14.40;85.10
11264;DHT22;5689;48.798;9.070;2023-03-23T05:11:33;14.40;84.90
11264;DHT22;5689;48.798;9.070;2023-03-23T05:14:00;14.30;85.10
11264;DHT22;5689;48.798;9.070;2023-03-23T05:16:29;14.30;85.10
11264;DHT22;5689;48.798;9.070;2023-03-23T05:18:56;14.30;84.90
11264;DHT22;5689;48.798;9.070;2023-03-23T05:21:25;14.40;84.70
11264;DHT22;5689;48.798;9.070;2023-03-23T05:23:54;14.30;84.60
11264;DHT22;5689;48.798;9.070;2023-03-23T05:26:23;14.40;84.80
11264;DHT22;5689;48.798;9.070;2023-03-23T05:28:54;14.40;84.70
11264;DHT22;5689;48.798;9.070;2023-03-23T05:31:24;14.30;85.00
11264;DHT22;5689;48.798;9.070;2023-03-23T05:33:52;14.30;84.90
11264;DHT22;5689;48.798;9.070;2023-03-23T05:36:25;14.30;85.30
11264;DHT22;5689;48.798;9.070;2023-03-23T05:39:23;14.20;85.30
11264;DHT22;5689;48.798;9.070;2023-03-23T05:42:14;14.20;85.40
11264;DHT22;5689;48.798;9.070;2023-03-23T05:44:49;14.20;85.30
11264;DHT22;5689;48.798;9.070;2023-03-23T05:47:18;14.30;85.60
11264;DHT22;5689;48.798;9.070;2023-03-23T05:49:51;14.30;85.60
11264;DHT22;5689;48.798;9.070;2023-03-23T05:52:19;14.20;85.80
11264;DHT22;5689;48.798;9.070;2023-03-23T05:54:47;14.10;86.10
11264;DHT22;5689;48.798;9.070;2023-03-23T05:57:14;14.10;86.10
11264;DHT22;5689;48.798;9.070;2023-03-23T05:59:50;14.20;86.00
11264;DHT22;5689;48.798;9.070;2023-03-23T06:02:23;14.10;86.30
11264;DHT22;5689;48.798;9.070;2023-03-23T06:04:52;14.20;86.30
11264;DHT22;5689;48.798;9.070;2023-03-23T06:07:27;14.20;86.70
11264;DHT22;5689;48.798;9.070;2023-03-23T06:09:59;14.30;86.70
11264;DHT22;5689;48.798;9.070;2023-03-23T06:12:42;14.30;86.30
11264;DHT22;5689;48.798;9.070;2023-03-23T06:15:19;14.30;85.90
11264;DHT22;5689;48.798;9.070;2023-03-23T06:18:07;14.40;86.30
11264;DHT22;5689;48.798;9.070;2023-03-23T06:20:44;14.30;86.10
11264;DHT22;5689;48.798;9.070;2023-03-23T06:23:34;14.40;86.50
11264;DHT22;5689;48.798;9.070;2023-03-23T06:26:04;14.30;86.40
11264;DHT22;5689;48.798;9.070;2023-03-23T06:28:33;14.20;86.40
11264;DHT22;5689;48.798;9.070;2023-03-23T06:31:02;14.30;86.80
11264;DHT22;5689;48.798;9.070;2023-03-23T06:33:32;14.30;86.50
11264;DHT22;5689;48.798;9.070;2023-03-23T06:36:31;14.30;86.80
11264;DHT22;5689;48.798;9.070;2023-03-23T06:39:12;14.20;87.10
11264;DHT22;5689;48.798;9.070;2023-03-23T06:42:04;14.30;87.00
11264;DHT22;5689;48.798;9.070;2023-03-23T06:44:35;14.40;86.90
11264;DHT22;5689;48.798;9.070;2023-03-23T06:47:04;14.30;87.10
11264;DHT22;5689;48.798;9.070;2023-03-23T06:49:35;14.50;87.10
11264;DHT22;5689;48.798;9.070;2023-03-23T06:52:11;14.60;86.60
11264;DHT22;5689;48.798;9.070;2023-03-23T06:54:37;14.80;87.30
11264;DHT22;5689;48.798;9.070;2023-03-23T06:57:06;15.00;87.10
11264;DHT22;5689;48.798;9.070;2023-03-23T06:59:33;15.00;86.90
11264;DHT22;5689;48.798;9.070;2023-03-23T07:02:02;15.10;86.30
11264;DHT22;5689;48.798;9.070;2023-03-23T07:04:31;15.10;86.70
11264;DHT22;5689;48.798;9.070;2023-03-23T07:07:10;15.00;86.70
11264;DHT22;5689;48.798;9.070;2023-03-23T07:09:49;15.00;87.00
11264;DHT22;5689;48.798;9.070;2023-03-23T07:12:20;15.00;86.70
11264;DHT22;5689;48.798;9.070;2023-03-23T07:14:49;14.90;86.90
11264;DHT22;5689;48.798;9.070;2023-03-23T07:17:18;14.90;86.50
11264;DHT22;5689;48.798;9.070;2023-03-23T07:20:20;14.90;86.60
11264;DHT22;5689;48.798;9.070;2023-03-23T07:22:47;14.90;87.10
11264;DHT22;5689;48.798;9.070;2023-03-23T07:25:34;14.80;87.30
11264;DHT22;5689;48.798;9.070;2023-03-23T07:28:02;14.90;87.40
11264;DHT22;5689;48.798;9.070;2023-03-23T07:30:30;14.80;87.10
11264;DHT22;5689;48.798;9.070;2023-03-23T07:32:58;14.80;87.70
11264;DHT22;5689;48.798;9.070;2023-03-23T07:35:26;14.80;87.70
11264;DHT22;5689;48.798;9.070;2023-03-23T07:37:58;14.80;87.50
11264;DHT22;5689;48.798;9.070;2023-03-23T07:40:25;14.90;87.60
11264;DHT22;5689;48.798;9.070;2023-03-23T07:43:00;15.00;87.80
11264;DHT22;5689;48.798;9.070;2023-03-23T07:45:53;15.20;87.70
11264;DHT22;5689;48.798;9.070;2023-03-23T07:48:24;15.20;88.90
11264;DHT22;5689;48.798;9.070;2023-03-23T07:50:52;15.70;87.60
11264;DHT22;5689;48.798;9.070;2023-03-23T07:53:20;15.90;87.60
11264;DHT22;5689;48.798;9.070;2023-03-23T07:55:56;16.40;87.20
11264;DHT22;5689;48.798;9.070;2023-03-23T07:58:41;16.70;85.60
11264;DHT22;5689;48.798;9.070;2023-03-23T08:01:10;16.80;86.00
11264;DHT22;5689;48.798;9.070;2023-03-23T08:03:40;16.60;86.00
11264;DHT22;5689;48.798;9.070;2023-03-23T08:06:28;16.60;84.90
11264;DHT22;5689;48.798;9.070;2023-03-23T08:09:15;16.20;87.00
11264;DHT22;5689;48.798;9.070;2023-03-23T08:12:03;16.10;87.70
11264;DHT22;5689;48.798;9.070;2023-03-23T08:14:49;15.90;87.90
11264;DHT22;5689;48.798;9.070;2023-03-23T08:17:40;15.80;89.70
11264;DHT22;5689;48.798;9.070;2023-03-23T08:20:20;16.00;90.00
11264;DHT22;5689;48.798;9.070;2023-03-23T08:23:06;16.30;88.40
11264;DHT22;5689;48.798;9.070;2023-03-23T08:25:48;16.50;87.90
11264;DHT22;5689;48.798;9.070;2023-03-23T08:28:30;16.70;87.80
11264;DHT22;5689;48.798;9.070;2023-03-23T08:30:56;16.50;89.50
11264;DHT22;5689;48.798;9.070;2023-03-23T08:33:34;16.40;89.00
11264;DHT22;5689;48.798;9.070;2023-03-23T08:36:21;16.40;89.60
11264;DHT22;5689;48.798;9.070;2023-03-23T08:39:07;16.30;89.80
11264;DHT22;5689;48.798;9.070;2023-03-23T08:41:53;16.40;90.10
11264;DHT22;5689;48.798;9.070;2023-03-23T08:44:38;16.20;90.20
11264;DHT22;5689;48.798;9.070;2023-03-23T08:47:15;16.10;90.60
11264;DHT22;5689;48.798;9.070;2023-03-23T08:50:23;15.90;90.90
11264;DHT22;5689;48.798;9.070;2023-03-23T08:52:57;15.80;91.20
11264;DHT22;5689;48.798;9.070;2023-03-23T08:55:52;15.70;91.60
11264;DHT22;5689;48.798;9.070;2023-03-23T08:58:19;15.70;91.80
11264;DHT22;5689;48.798;9.070;2023-03-23T09:01:10;15.60;92.10
11264;DHT22;5689;48.798;9.070;2023-03-23T09:03:44;15.70;91.80
11264;DHT22;5689;48.798;9.070;2023-03-23T09:06:40;15.80;91.50
11264;DHT22;5689;48.798;9.070;2023-03-23T09:09:08;15.80;91.40
11264;DHT22;5689;48.798;9.070;2023-03-23T09:11:37;15.80;91.60
11264;DHT22;5689;48.798;9.070;2023-03-23T09:14:06;15.70;91.70
11264;DHT22;5689;48.798;9.070;2023-03-23T09:16:34;16.00;91.60
11264;DHT22;5689;48.798;9.070;2023-03-23T09:19:01;16.00;91.60
11264;DHT22;5689;48.798;9.070;2023-03-23T09:21:28;16.10;91.40
11264;DHT22;5689;48.798;9.070;2023-03-23T09:23:56;16.00;91.90
11264;DHT22;5689;48.798;9.070;2023-03-23T09:26:25;16.10;91.70
11264;DHT22;5689;48.798;9.070;2023-03-23T09:28:52;16.30;91.50
11264;DHT22;5689;48.798;9.070;2023-03-23T09:31:19;16.60;91.40
11264;DHT22;5689;48.798;9.070;2023-03-23T09:33:47;16.90;91.00
11264;DHT22;5689;48.798;9.070;2023-03-23T09:36:17;17.40;90.10
11264;DHT22;5689;48.798;9.070;2023-03-23T09:38:47;17.00;90.30
11264;DHT22;5689;48.798;9.070;2023-03-23T09:41:32;16.70;91.10
11264;DHT22;5689;48.798;9.070;2023-03-23T09:44:05;16.70;90.50
11264;DHT22;5689;48.798;9.070;2023-03-23T09:46:42;16.60;90.90
11264;DHT22;5689;48.798;9.070;2023-03-23T09:49:15;16.80;91.40
11264;DHT22;5689;48.798;9.070;2023-03-23T09:51:46;16.80;91.00
11264;DHT22;5689;48.798;9.070;2023-03-23T09:54:21;16.80;91.00
11264;DHT22;5689;48.798;9.070;2023-03-23T09:56:50;16.90;90.90
11264;DHT22;5689;48.798;9.070;2023-03-23T09:59:22;17.40;90.40
11264;DHT22;5689;48.798;9.070;2023-03-23T10:01:52;17.40;90.70
11264;DHT22;5689;48.798;9.070;2023-03-23T10:04:33;17.10;90.70
11264;DHT22;5689;48.798;9.070;2023-03-23T10:07:09;17.50;90.30
11264;DHT22;5689;48.798;9.070;2023-03-23T10:09:37;17.60;90.20
11264;DHT22;5689;48.798;9.070;2023-03-23T10:12:11;17.50;90.10
11264;DHT22;5689;48.798;9.070;2023-03-23T10:14:55;17.60;90.60
11264;DHT22;5689;48.798;9.070;2023-03-23T10:17:28;17.80;89.30
11264;DHT22;5689;48.798;9.070;2023-03-23T10:20:04;18.20;90.00
11264;DHT22;5689;48.798;9.070;2023-03-23T10:22:42;18.20;89.10
11264;DHT22;5689;48.798;9.070;2023-03-23T10:25:16;18.60;88.40
11264;DHT22;5689;48.798;9.070;2023-03-23T10:27:49;18.90;87.40
11264;DHT22;5689;48.798;9.070;2023-03-23T10:30:21;19.40;87.70
11264;DHT22;5689;48.798;9.070;2023-03-23T10:32:52;19.70;86.00
11264;DHT22;5689;48.798;9.070;2023-03-23T10:35:24;18.50;89.90
11264;DHT22;5689;48.798;9.070;2023-03-23T10:37:55;18.00;90.90
11264;DHT22;5689;48.798;9.070;2023-03-23T10:40:28;18.50;90.00
11264;DHT22;5689;48.798;9.070;2023-03-23T10:42:57;18.50;88.60
11264;DHT22;5689;48.798;9.070;2023-03-23T10:45:27;18.80;88.90
11264;DHT22;5689;48.798;9.070;2023-03-23T10:48:05;18.20;90.70
11264;DHT22;5689;48.798;9.070;2023-03-23T10:50:37;18.10;90.60
11264;DHT22;5689;48.798;9.070;2023-03-23T10:53:13;18.50;90.30
11264;DHT22;5689;48.798;9.070;2023-03-23T10:55:42;18.40;90.50
11264;DHT22;5689;48.798;9.070;2023-03-23T10:58:21;19.00;89.70
11264;DHT22;5689;48.798;9.070;2023-03-23T11:00:49;18.80;90.90
11264;DHT22;5689;48.798;9.070;2023-03-23T11:03:40;18.70;90.60
11264;DHT22;5689;48.798;9.070;2023-03-23T11:06:09;18.90;89.50
11264;DHT22;5689;48.798;9.070;2023-03-23T11:08:46;18.60;89.80
11264;DHT22;5689;48.798;9.070;2023-03-23T11:11:16;17.60;91.20
11264;DHT22;5689;48.798;9.070;2023-03-23T11:13:47;17.50;91.90
11264;DHT22;5689;48.798;9.070;2023-03-23T11:16:25;18.00;91.00
11264;DHT22;5689;48.798;9.070;2023-03-23T11:18:53;18.10;90.60
11264;DHT22;5689;48.798;9.070;2023-03-23T11:21:22;17.80;90.60
11264;DHT22;5689;48.798;9.070;2023-03-23T11:23:52;17.60;90.80
11264;DHT22;5689;48.798;9.070;2023-03-23T11:26:22;17.10;91.00
11264;DHT22;5689;48.798;9.070;2023-03-23T11:28:56;17.10;91.00
11264;DHT22;5689;48.798;9.070;2023-03-23T11:31:26;17.10;91.30
11264;DHT22;5689;48.798;9.070;2023-03-23T11:33:57;17.40;91.20
11264;DHT22;5689;48.798;9.070;2023-03-23T11:36:33;18.50;90.30
11264;DHT22;5689;48.798;9.070;2023-03-23T11:39:00;19.40;89.00
11264;DHT22;5689;48.798;9.070;2023-03-23T11:41:32;19.50;88.40
11264;DHT22;5689;48.798;9.070;2023-03-23T11:44:09;18.80;88.70
11264;DHT22;5689;48.798;9.070;2023-03-23T11:46:44;18.60;89.20
11264;DHT22;5689;48.798;9.070;2023-03-23T11:49:20;18.70;88.40
11264;DHT22;5689;48.798;9.070;2023-03-23T11:51:53;18.20;88.90
11264;DHT22;5689;48.798;9.070;2023-03-23T11:54:28;18.10;88.50
11264;DHT22;5689;48.798;9.070;2023-03-23T11:56:56;17.80;90.00
11264;DHT22;5689;48.798;9.070;2023-03-23T11:59:29;17.90;89.00
11264;DHT22;5689;48.798;9.070;2023-03-23T12:02:08;17.80;88.40
11264;DHT22;5689;48.798;9.070;2023-03-23T12:04:57;17.80;88.80
11264;DHT22;5689;48.798;9.070;2023-03-23T12:07:38;18.00;90.00
11264;DHT22;5689;48.798;9.070;2023-03-23T12:10:19;17.90;90.50
11264;DHT22;5689;48.798;9.070;2023-03-23T12:12:52;18.40;89.30
11264;DHT22;5689;48.798;9.070;2023-03-23T12:15:27;18.10;87.90
11264;DHT22;5689;48.798;9.070;2023-03-23T12:18:03;18.00;88.00
11264;DHT22;5689;48.798;9.070;2023-03-23T12:20:41;17.90;88.00
11264;DHT22;5689;48.798;9.070;2023-03-23T12:23:18;18.10;88.10
11264;DHT22;5689;48.798;9.070;2023-03-23T12:26:03;18.50;87.50
11264;DHT22;5689;48.798;9.070;2023-03-23T12:28:49;18.80;85.60
11264;DHT22;5689;48.798;9.070;2023-03-23T12:31:27;19.00;85.70
11264;DHT22;5689;48.798;9.070;2023-03-23T12:34:03;19.30;86.60
11264;DHT22;5689;48.798;9.070;2023-03-23T12:36:41;19.30;86.50
11264;DHT22;5689;48.798;9.070;2023-03-23T12:42:24;19.90;85.00
11264;DHT22;5689;48.798;9.070;2023-03-23T12:44:59;19.60;87.80
11264;DHT22;5689;48.798;9.070;2023-03-23T12:47:37;19.70;87.50
11264;DHT22;5689;48.798;9.070;2023-03-23T12:50:13;19.50;85.90
11264;DHT22;5689;48.798;9.070;2023-03-23T12:52:47;19.30;86.60
11264;DHT22;5689;48.798;9.070;2023-03-23T12:55:21;19.60;85.60
11264;DHT22;5689;48.798;9.070;2023-03-23T12:57:54;19.10;84.90
11264;DHT22;5689;48.798;9.070;2023-03-23T13:00:28;18.70;85.00
11264;DHT22;5689;48.798;9.070;2023-03-23T13:03:00;18.00;87.80
11264;DHT22;5689;48.798;9.070;2023-03-23T13:05:39;18.10;88.80
11264;DHT22;5689;48.798;9.070;2023-03-23T13:08:15;18.20;87.60
11264;DHT22;5689;48.798;9.070;2023-03-23T13:10:45;18.40;87.00
11264;DHT22;5689;48.798;9.070;2023-03-23T13:13:17;19.00;85.30
11264;DHT22;5689;48.798;9.070;2023-03-23T13:15:54;19.50;85.00
11264;DHT22;5689;48.798;9.070;2023-03-23T13:18:31;19.30;85.00
11264;DHT22;5689;48.798;9.070;2023-03-23T13:21:07;19.10;85.70
11264;DHT22;5689;48.798;9.070;2023-03-23T13:23:39;19.50;85.90
11264;DHT22;5689;48.798;9.070;2023-03-23T13:26:08;19.50;85.30
11264;DHT22;5689;48.798;9.070;2023-03-23T13:28:50;19.90;83.00
11264;DHT22;5689;48.798;9.070;2023-03-23T13:31:21;19.50;83.00
11264;DHT22;5689;48.798;9.070;2023-03-23T13:33:53;19.70;83.60
11264;DHT22;5689;48.798;9.070;2023-03-23T13:36:28;20.10;84.50
11264;DHT22;5689;48.798;9.070;2023-03-23T13:38:58;20.10;83.70
11264;DHT22;5689;48.798;9.070;2023-03-23T13:41:26;19.80;83.40
11264;DHT22;5689;48.798;9.070;2023-03-23T13:44:05;19.30;85.90
11264;DHT22;5689;48.798;9.070;2023-03-23T13:46:32;19.60;86.60
11264;DHT22;5689;48.798;9.070;2023-03-23T13:49:18;19.40;85.50
11264;DHT22;5689;48.798;9.070;2023-03-23T13:51:59;19.50;86.30
11264;DHT22;5689;48.798;9.070;2023-03-23T13:54:32;19.50;83.80
11264;DHT22;5689;48.798;9.070;2023-03-23T13:57:33;19.20;85.30
11264;DHT22;5689;48.798;9.070;2023-03-23T14:00:24;18.80;85.40
11264;DHT22;5689;48.798;9.070;2023-03-23T14:02:58;18.20;88.70
11264;DHT22;5689;48.798;9.070;2023-03-23T14:05:34;18.30;87.60
11264;DHT22;5689;48.798;9.070;2023-03-23T14:08:09;18.50;87.20
11264;DHT22;5689;48.798;9.070;2023-03-23T14:10:38;18.80;85.50
11264;DHT22;5689;48.798;9.070;2023-03-23T14:13:14;18.80;86.40
11264;DHT22;5689;48.798;9.070;2023-03-23T14:15:43;18.80;84.60
11264;DHT22;5689;48.798;9.070;2023-03-23T14:18:14;18.70;84.90
11264;DHT22;5689;48.798;9.070;2023-03-23T14:20:45;19.00;84.60
11264;DHT22;5689;48.798;9.070;2023-03-23T14:23:18;18.90;85.60
11264;DHT22;5689;48.798;9.070;2023-03-23T14:25:54;19.00;86.40
11264;DHT22;5689;48.798;9.070;2023-03-23T14:28:22;18.90;86.30
11264;DHT22;5689;48.798;9.070;2023-03-23T14:30:52;19.20;84.60
11264;DHT22;5689;48.798;9.070;2023-03-23T14:33:20;18.80;86.10
11264;DHT22;5689;48.798;9.070;2023-03-23T14:35:49;18.80;85.90
11264;DHT22;5689;48.798;9.070;2023-03-23T14:38:17;19.10;85.50
11264;DHT22;5689;48.798;9.070;2023-03-23T14:40:46;19.40;84.00
11264;DHT22;5689;48.798;9.070;2023-03-23T14:43:16;19.20;85.10
11264;DHT22;5689;48.798;9.070;2023-03-23T14:45:51;19.40;84.10
11264;DHT22;5689;48.798;9.070;2023-03-23T14:48:18;19.20;82.60
11264;DHT22;5689;48.798;9.070;2023-03-23T14:50:51;19.10;83.80
11264;DHT22;5689;48.798;9.070;2023-03-23T14:53:21;18.80;82.80
11264;DHT22;5689;48.798;9.070;2023-03-23T14:55:50;18.80;83.20
11264;DHT22;5689;48.798;9.070;2023-03-23T14:58:19;18.70;82.90
11264;DHT22;5689;48.798;9.070;2023-03-23T15:00:50;18.80;83.20
11264;DHT22;5689;48.798;9.070;2023-03-23T15:03:21;18.60;83.50
11264;DHT22;5689;48.798;9.070;2023-03-23T15:05:52;18.60;82.70
11264;DHT22;5689;48.798;9.070;2023-03-23T15:08:24;18.50;82.00
11264;DHT22;5689;48.798;9.070;2023-03-23T15:10:59;18.60;82.20
11264;DHT22;5689;48.798;9.070;2023-03-23T15:13:27;18.50;81.80
11264;DHT22;5689;48.798;9.070;2023-03-23T15:16:05;18.50;81.70
11264;DHT22;5689;48.798;9.070;2023-03-23T15:18:35;18.50;82.20
11264;DHT22;5689;48.798;9.070;2023-03-23T15:21:18;18.50;82.30
11264;DHT22;5689;48.798;9.070;2023-03-23T15:23:46;18.70;82.50
11264;DHT22;5689;48.798;9.070;2023-03-23T15:26:31;18.50;81.50
11264;DHT22;5689;48.798;9.070;2023-03-23T15:29:17;18.30;81.90
11264;DHT22;5689;48.798;9.070;2023-03-23T15:31:46;18.40;82.30
11264;DHT22;5689;48.798;9.070;2023-03-23T15:34:20;18.30;81.40
11264;DHT22;5689;48.798;9.070;2023-03-23T15:36:55;18.30;81.70
11264;DHT22;5689;48.798;9.070;2023-03-23T15:39:22;18.20;81.40
11264;DHT22;5689;48.798;9.070;2023-03-23T15:41:51;17.90;82.30
11264;DHT22;5689;48.798;9.070;2023-03-23T15:44:28;18.00;81.90
11264;DHT22;5689;48.798;9.070;2023-03-23T15:47:13;18.00;82.50
11264;DHT22;5689;48.798;9.070;2023-03-23T15:49:42;18.00;82.10
11264;DHT22;5689;48.798;9.070;2023-03-23T15:52:12;18.10;80.50
11264;DHT22;5689;48.798;9.070;2023-03-23T15:54:46;18.00;81.00
11264;DHT22;5689;48.798;9.070;2023-03-23T15:57:13;18.10;80.50
11264;DHT22;5689;48.798;9.070;2023-03-23T15:59:40;18.10;80.40
11264;DHT22;5689;48.798;9.070;2023-03-23T16:02:16;17.80;81.00
11264;DHT22;5689;48.798;9.070;2023-03-23T16:04:45;17.90;80.70
11264;DHT22;5689;48.798;9.070;2023-03-23T16:07:15;17.70;81.20
11264;DHT22;5689;48.798;9.070;2023-03-23T16:09:43;17.70;81.40
11264;DHT22;5689;48.798;9.070;2023-03-23T16:12:12;17.60;81.20
11264;DHT22;5689;48.798;9.070;2023-03-23T16:14:40;17.60;81.90
11264;DHT22;5689;48.798;9.070;2023-03-23T16:17:10;17.70;81.70
11264;DHT22;5689;48.798;9.070;2023-03-23T16:19:39;17.50;82.10
11264;DHT22;5689;48.798;9.070;2023-03-23T16:22:08;17.50;82.10
11264;DHT22;5689;48.798;9.070;2023-03-23T16:24:37;17.40;82.00
11264;DHT22;5689;48.798;9.070;2023-03-23T16:27:05;17.30;83.30
11264;DHT22;5689;48.798;9.070;2023-03-23T16:29:33;17.50;82.40
11264;DHT22;5689;48.798;9.070;2023-03-23T16:32:06;17.40;82.40